sensor_id;sensor_type;location;lat;lon;timestamp;pressure;altitude;pressure_sealevel;temperature;humidity
25610;BME280;13479;49.044;8.716;2022-09-12T04:17:07;99164.25;;;12.86;91.39
25610;BME280;13479;49.044;8.716;2022-09-12T04:19:32;99168.88;;;12.84;91.21
25610;BME280;13479;49.044;8.716;2022-09-12T04:21:57;99144.91;;;12.74;91.60
25610;BME280;13479;49.044;8.716;2022-09-12T04:24:23;99142.94;;;12.86;91.24
25610;BME280;13479;49.044;8.716;2022-09-12T04:26:48;99145.78;;;12.75;91.50
25610;BME280;13479;49.044;8.716;2022-09-12T04:29:14;99129.47;;;12.78;91.75
25610;BME280;13479;49.044;8.716;2022-09-12T04:31:39;99149.53;;;12.82;91.50
25610;BME280;13479;49.044;8.716;2022-09-12T04:34:05;99164.97;;;12.88;90.47
25610;BME280;13479;49.044;8.716;2022-09-12T04:36:30;99151.50;;;12.80;90.69
25610;BME280;13479;49.044;8.716;2022-09-12T04:38:57;99149.69;;;12.80;90.72
25610;BME280;13479;49.044;8.716;2022-09-12T04:41:29;99156.28;;;12.86;89.94
25610;BME280;13479;49.044;8.716;2022-09-12T04:43:58;99137.19;;;12.81;90.45
25610;BME280;13479;49.044;8.716;2022-09-12T04:46:26;99153.19;;;12.81;90.13
25610;BME280;13479;49.044;8.716;2022-09-12T04:48:52;99147.84;;;12.81;89.83
25610;BME280;13479;49.044;8.716;2022-09-12T04:51:28;99123.16;;;12.79;90.12
25610;BME280;13479;49.044;8.716;2022-09-12T04:53:56;99121.50;;;12.78;90.29
25610;BME280;13479;49.044;8.716;2022-09-12T04:56:23;99107.78;;;12.73;90.90
25610;BME280;13479;49.044;8.716;2022-09-12T04:58:48;99099.50;;;12.76;91.03
25610;BME280;13479;49.044;8.716;2022-09-12T05:01:16;99102.28;;;12.84;91.42
25610;BME280;13479;49.044;8.716;2022-09-12T05:03:42;99097.50;;;12.78;91.99
25610;BME280;13479;49.044;8.716;2022-09-12T05:06:10;99112.81;;;12.76;92.21
25610;BME280;13479;49.044;8.716;2022-09-12T05:08:36;99131.84;;;12.91;92.08
25610;BME280;13479;49.044;8.716;2022-09-12T05:11:04;99154.97;;;13.00;91.17
25610;BME280;13479;49.044;8.716;2022-09-12T05:13:30;99143.03;;;13.04;91.10
25610;BME280;13479;49.044;8.716;2022-09-12T05:15:58;99139.97;;;12.99;91.63
25610;BME280;13479;49.044;8.716;2022-09-12T05:18:24;99137.56;;;13.06;91.19
25610;BME280;13479;49.044;8.716;2022-09-12T05:20:50;99133.75;;;13.08;91.97
25610;BME280;13479;49.044;8.716;2022-09-12T05:23:15;99146.06;;;13.19;91.39
25610;BME280;13479;49.044;8.716;2022-09-12T05:25:51;99162.44;;;13.24;90.46
25610;BME280;13479;49.044;8.716;2022-09-12T05:28:17;99160.75;;;13.43;89.56
25610;BME280;13479;49.044;8.716;2022-09-12T05:30:42;99144.00;;;13.51;88.96
25610;BME280;13479;49.044;8.716;2022-09-12T05:33:08;99126.69;;;13.55;90.07
25610;BME280;13479;49.044;8.716;2022-09-12T05:35:33;99110.53;;;14.02;90.19
25610;BME280;13479;49.044;8.716;2022-09-12T05:37:58;99152.16;;;14.94;88.49
25610;BME280;13479;49.044;8.716;2022-09-12T05:40:24;99131.19;;;15.93;85.91
25610;BME280;13479;49.044;8.716;2022-09-12T05:42:49;99088.31;;;16.84;81.07
25610;BME280;13479;49.044;8.716;2022-09-12T05:45:14;99047.88;;;17.73;78.53
25610;BME280;13479;49.044;8.716;2022-09-12T05:47:40;99021.72;;;18.67;74.63
25610;BME280;13479;49.044;8.716;2022-09-12T05:50:06;99007.63;;;19.47;68.28
25610;BME280;13479;49.044;8.716;2022-09-12T05:52:35;98949.59;;;20.09;62.75
25610;BME280;13479;49.044;8.716;2022-09-12T05:55:00;98925.16;;;20.46;59.64
25610;BME280;13479;49.044;8.716;2022-09-12T05:57:25;98935.72;;;20.76;57.57
25610;BME280;13479;49.044;8.716;2022-09-12T05:59:51;98934.00;;;21.23;56.57
25610;BME280;13479;49.044;8.716;2022-09-12T06:02:16;98932.44;;;21.76;54.85
25610;BME280;13479;49.044;8.716;2022-09-12T06:04:42;98943.38;;;22.35;52.83
25610;BME280;13479;49.044;8.716;2022-09-12T06:07:07;98961.72;;;23.05;50.79
25610;BME280;13479;49.044;8.716;2022-09-12T06:09:33;98967.16;;;23.76;49.07
25610;BME280;13479;49.044;8.716;2022-09-12T06:11:58;98980.41;;;24.42;47.29
25610;BME280;13479;49.044;8.716;2022-09-12T06:14:23;98982.25;;;25.04;46.19
25610;BME280;13479;49.044;8.716;2022-09-12T06:16:48;99001.81;;;25.85;44.26
25610;BME280;13479;49.044;8.716;2022-09-12T06:19:19;99015.66;;;26.38;41.23
25610;BME280;13479;49.044;8.716;2022-09-12T06:21:45;99031.63;;;26.46;40.83
25610;BME280;13479;49.044;8.716;2022-09-12T06:24:12;99035.41;;;26.45;40.88
25610;BME280;13479;49.044;8.716;2022-09-12T06:26:38;99040.00;;;26.33;40.73
25610;BME280;13479;49.044;8.716;2022-09-12T06:29:03;99051.72;;;26.45;40.61
25610;BME280;13479;49.044;8.716;2022-09-12T06:31:34;99053.06;;;26.66;40.41
25610;BME280;13479;49.044;8.716;2022-09-12T06:34:01;99049.41;;;26.85;39.81
25610;BME280;13479;49.044;8.716;2022-09-12T06:36:29;99059.28;;;27.15;39.61
25610;BME280;13479;49.044;8.716;2022-09-12T06:39:08;99058.31;;;27.21;39.08
25610;BME280;13479;49.044;8.716;2022-09-12T06:41:34;99055.22;;;27.87;38.21
25610;BME280;13479;49.044;8.716;2022-09-12T06:44:00;99063.91;;;28.47;36.93
25610;BME280;13479;49.044;8.716;2022-09-12T06:46:26;99071.59;;;29.06;36.33
25610;BME280;13479;49.044;8.716;2022-09-12T06:48:54;99075.88;;;29.64;34.80
25610;BME280;13479;49.044;8.716;2022-09-12T06:51:19;99093.63;;;30.43;33.69
25610;BME280;13479;49.044;8.716;2022-09-12T06:53:46;99092.19;;;30.73;32.52
25610;BME280;13479;49.044;8.716;2022-09-12T06:58:39;99114.88;;;31.06;31.47
25610;BME280;13479;49.044;8.716;2022-09-12T07:01:18;99132.00;;;31.29;31.14
25610;BME280;13479;49.044;8.716;2022-09-12T07:03:48;99128.66;;;31.11;31.33
25610;BME280;13479;49.044;8.716;2022-09-12T07:06:15;99131.78;;;30.93;31.76
25610;BME280;13479;49.044;8.716;2022-09-12T07:08:41;99127.19;;;30.61;31.71
25610;BME280;13479;49.044;8.716;2022-09-12T07:11:12;99124.75;;;30.32;32.20
25610;BME280;13479;49.044;8.716;2022-09-12T07:13:39;99112.06;;;31.39;31.50
25610;BME280;13479;49.044;8.716;2022-09-12T07:16:06;99126.25;;;31.99;30.05
25610;BME280;13479;49.044;8.716;2022-09-12T07:18:32;99132.81;;;32.03;30.06
25610;BME280;13479;49.044;8.716;2022-09-12T07:20:59;99122.47;;;32.68;30.05
25610;BME280;13479;49.044;8.716;2022-09-12T07:23:25;99129.53;;;33.10;28.45
25610;BME280;13479;49.044;8.716;2022-09-12T07:25:54;99146.34;;;33.08;28.68
25610;BME280;13479;49.044;8.716;2022-09-12T07:28:30;99152.47;;;33.66;27.76
25610;BME280;13479;49.044;8.716;2022-09-12T07:30:56;99142.97;;;35.02;26.24
25610;BME280;13479;49.044;8.716;2022-09-12T07:33:26;99150.00;;;36.24;24.50
25610;BME280;13479;49.044;8.716;2022-09-12T07:35:51;99156.50;;;36.14;24.60
25610;BME280;13479;49.044;8.716;2022-09-12T07:38:19;99172.91;;;35.86;25.04
25610;BME280;13479;49.044;8.716;2022-09-12T07:40:44;99165.09;;;36.51;24.32
25610;BME280;13479;49.044;8.716;2022-09-12T07:43:09;99171.94;;;36.54;24.11
25610;BME280;13479;49.044;8.716;2022-09-12T07:45:34;99175.47;;;36.92;23.84
25610;BME280;13479;49.044;8.716;2022-09-12T07:48:00;99180.84;;;37.31;22.92
25610;BME280;13479;49.044;8.716;2022-09-12T07:50:25;99170.44;;;36.61;23.95
25610;BME280;13479;49.044;8.716;2022-09-12T07:52:52;99168.75;;;36.27;24.29
25610;BME280;13479;49.044;8.716;2022-09-12T07:55:17;99166.66;;;36.00;24.13
25610;BME280;13479;49.044;8.716;2022-09-12T07:57:43;99162.25;;;36.18;23.66
25610;BME280;13479;49.044;8.716;2022-09-12T08:00:09;99166.75;;;35.70;24.48
25610;BME280;13479;49.044;8.716;2022-09-12T08:02:35;99171.03;;;35.09;25.14
25610;BME280;13479;49.044;8.716;2022-09-12T08:05:01;99152.72;;;34.94;25.96
25610;BME280;13479;49.044;8.716;2022-09-12T08:07:26;99141.09;;;34.97;25.51
25610;BME280;13479;49.044;8.716;2022-09-12T08:09:51;99117.31;;;35.93;24.84
25610;BME280;13479;49.044;8.716;2022-09-12T08:12:18;99141.81;;;36.85;23.67
25610;BME280;13479;49.044;8.716;2022-09-12T08:14:44;99156.41;;;37.33;23.16
25610;BME280;13479;49.044;8.716;2022-09-12T08:17:09;99154.91;;;37.54;23.16
25610;BME280;13479;49.044;8.716;2022-09-12T08:19:35;99151.50;;;37.02;23.25
25610;BME280;13479;49.044;8.716;2022-09-12T08:22:00;99150.25;;;37.92;22.33
25610;BME280;13479;49.044;8.716;2022-09-12T08:24:26;99149.03;;;37.28;22.89
25610;BME280;13479;49.044;8.716;2022-09-12T08:26:52;99158.25;;;36.96;23.42
25610;BME280;13479;49.044;8.716;2022-09-12T08:29:17;99154.47;;;37.61;22.65
25610;BME280;13479;49.044;8.716;2022-09-12T08:31:42;99159.09;;;38.16;21.79
25610;BME280;13479;49.044;8.716;2022-09-12T08:34:08;99163.38;;;38.00;22.00
25610;BME280;13479;49.044;8.716;2022-09-12T08:36:34;99160.88;;;38.35;21.87
25610;BME280;13479;49.044;8.716;2022-09-12T08:39:02;99163.75;;;38.30;22.09
25610;BME280;13479;49.044;8.716;2022-09-12T08:41:30;99167.78;;;38.69;21.39
25610;BME280;13479;49.044;8.716;2022-09-12T08:44:20;99175.66;;;38.67;21.06
25610;BME280;13479;49.044;8.716;2022-09-12T08:49:28;99141.69;;;37.51;22.71
25610;BME280;13479;49.044;8.716;2022-09-12T08:51:56;99128.97;;;38.24;21.54
25610;BME280;13479;49.044;8.716;2022-09-12T08:54:26;99145.16;;;38.30;21.84
25610;BME280;13479;49.044;8.716;2022-09-12T08:56:57;99137.06;;;38.57;21.62
25610;BME280;13479;49.044;8.716;2022-09-12T08:59:31;99142.91;;;39.10;21.57
25610;BME280;13479;49.044;8.716;2022-09-12T09:01:59;99140.69;;;39.96;20.35
25610;BME280;13479;49.044;8.716;2022-09-12T09:04:49;99151.97;;;40.43;19.43
25610;BME280;13479;49.044;8.716;2022-09-12T09:07:25;99156.88;;;39.94;19.42
25610;BME280;13479;49.044;8.716;2022-09-12T09:12:44;99156.22;;;40.06;19.63
25610;BME280;13479;49.044;8.716;2022-09-12T09:18:03;99149.34;;;40.65;18.91
25610;BME280;13479;49.044;8.716;2022-09-12T09:20:55;99154.28;;;40.24;19.23
25610;BME280;13479;49.044;8.716;2022-09-12T09:23:25;99143.47;;;39.96;19.98
25610;BME280;13479;49.044;8.716;2022-09-12T09:25:58;99143.72;;;39.59;19.83
25610;BME280;13479;49.044;8.716;2022-09-12T09:28:41;99138.72;;;38.89;20.49
25610;BME280;13479;49.044;8.716;2022-09-12T09:31:17;99128.34;;;38.27;21.13
25610;BME280;13479;49.044;8.716;2022-09-12T09:33:45;99122.47;;;38.28;21.23
25610;BME280;13479;49.044;8.716;2022-09-12T09:36:35;99114.25;;;38.60;20.73
25610;BME280;13479;49.044;8.716;2022-09-12T09:42:12;99112.75;;;37.02;22.53
25610;BME280;13479;49.044;8.716;2022-09-12T09:44:39;99099.28;;;36.34;22.54
25610;BME280;13479;49.044;8.716;2022-09-12T09:47:04;99094.56;;;36.68;22.82
25610;BME280;13479;49.044;8.716;2022-09-12T09:49:31;99093.47;;;37.24;22.38
25610;BME280;13479;49.044;8.716;2022-09-12T09:51:58;99095.25;;;38.44;21.27
25610;BME280;13479;49.044;8.716;2022-09-12T09:54:32;99107.06;;;38.90;21.07
25610;BME280;13479;49.044;8.716;2022-09-12T09:56:59;99118.38;;;39.03;20.65
25610;BME280;13479;49.044;8.716;2022-09-12T09:59:30;99122.31;;;39.51;20.01
25610;BME280;13479;49.044;8.716;2022-09-12T10:04:39;99121.06;;;38.85;19.35
25610;BME280;13479;49.044;8.716;2022-09-12T10:07:06;99122.78;;;38.72;20.07
25610;BME280;13479;49.044;8.716;2022-09-12T10:09:41;99117.38;;;38.90;19.94
25610;BME280;13479;49.044;8.716;2022-09-12T10:12:25;99118.78;;;38.33;20.39
25610;BME280;13479;49.044;8.716;2022-09-12T10:14:56;99111.22;;;38.02;20.13
25610;BME280;13479;49.044;8.716;2022-09-12T10:19:53;99101.66;;;34.97;23.54
25610;BME280;13479;49.044;8.716;2022-09-12T10:22:22;99075.47;;;34.00;24.25
25610;BME280;13479;49.044;8.716;2022-09-12T10:24:53;99068.06;;;34.65;24.17
25610;BME280;13479;49.044;8.716;2022-09-12T10:27:24;99052.94;;;34.62;24.47
25610;BME280;13479;49.044;8.716;2022-09-12T10:30:15;99058.13;;;34.00;24.98
25610;BME280;13479;49.044;8.716;2022-09-12T10:32:41;99043.41;;;34.49;24.76
25610;BME280;13479;49.044;8.716;2022-09-12T10:35:19;99040.66;;;35.47;23.65
25610;BME280;13479;49.044;8.716;2022-09-12T10:37:56;99046.03;;;35.57;23.63
25610;BME280;13479;49.044;8.716;2022-09-12T10:40:31;99041.19;;;35.24;23.81
25610;BME280;13479;49.044;8.716;2022-09-12T10:43:00;99050.81;;;34.54;23.78
25610;BME280;13479;49.044;8.716;2022-09-12T10:45:32;99040.38;;;33.26;25.63
25610;BME280;13479;49.044;8.716;2022-09-12T10:48:01;99042.00;;;32.26;26.43
25610;BME280;13479;49.044;8.716;2022-09-12T10:50:40;99014.75;;;32.55;26.65
25610;BME280;13479;49.044;8.716;2022-09-12T10:56:01;99019.94;;;33.48;24.68
25610;BME280;13479;49.044;8.716;2022-09-12T10:58:47;99005.16;;;33.73;25.53
25610;BME280;13479;49.044;8.716;2022-09-12T11:04:25;99000.06;;;35.47;23.33
25610;BME280;13479;49.044;8.716;2022-09-12T11:10:02;99017.50;;;32.55;26.30
25610;BME280;13479;49.044;8.716;2022-09-12T11:18:25;98971.88;;;32.59;26.42
25610;BME280;13479;49.044;8.716;2022-09-12T11:23:59;98960.34;;;30.16;28.07
25610;BME280;13479;49.044;8.716;2022-09-12T11:31:42;98948.69;;;28.28;31.22
25610;BME280;13479;49.044;8.716;2022-09-12T11:34:18;98942.28;;;28.17;31.30
25610;BME280;13479;49.044;8.716;2022-09-12T11:37:00;98935.72;;;27.67;32.89
25610;BME280;13479;49.044;8.716;2022-09-12T11:39:36;98935.59;;;27.16;32.77
25610;BME280;13479;49.044;8.716;2022-09-12T11:42:04;98926.66;;;27.03;33.72
25610;BME280;13479;49.044;8.716;2022-09-12T11:45:16;98927.59;;;26.97;33.38
25610;BME280;13479;49.044;8.716;2022-09-12T11:47:46;98901.06;;;26.63;33.56
25610;BME280;13479;49.044;8.716;2022-09-12T11:50:21;98896.47;;;26.52;34.02
25610;BME280;13479;49.044;8.716;2022-09-12T11:52:51;98900.38;;;26.56;32.46
25610;BME280;13479;49.044;8.716;2022-09-12T11:55:21;98879.00;;;26.36;33.55
25610;BME280;13479;49.044;8.716;2022-09-12T11:57:56;98879.81;;;26.36;33.58
25610;BME280;13479;49.044;8.716;2022-09-12T12:00:46;98892.44;;;26.55;34.27
25610;BME280;13479;49.044;8.716;2022-09-12T12:08:36;98879.59;;;26.38;34.46
25610;BME280;13479;49.044;8.716;2022-09-12T12:11:03;98868.84;;;26.31;33.70
25610;BME280;13479;49.044;8.716;2022-09-12T12:13:32;98873.34;;;26.26;33.51
25610;BME280;13479;49.044;8.716;2022-09-12T12:16:05;98872.16;;;26.21;33.54
25610;BME280;13479;49.044;8.716;2022-09-12T12:18:33;98868.38;;;26.23;33.57
25610;BME280;13479;49.044;8.716;2022-09-12T12:21:37;98861.47;;;26.32;33.31
25610;BME280;13479;49.044;8.716;2022-09-12T12:29:03;98850.94;;;26.35;33.29
25610;BME280;13479;49.044;8.716;2022-09-12T12:31:29;98851.00;;;26.52;33.38
25610;BME280;13479;49.044;8.716;2022-09-12T12:34:01;98838.91;;;26.31;33.62
25610;BME280;13479;49.044;8.716;2022-09-12T12:36:35;98851.56;;;26.26;34.09
25610;BME280;13479;49.044;8.716;2022-09-12T12:41:56;98835.03;;;26.15;34.20
25610;BME280;13479;49.044;8.716;2022-09-12T12:47:33;98822.72;;;26.01;34.77
25610;BME280;13479;49.044;8.716;2022-09-12T12:53:02;98818.38;;;26.12;34.70
25610;BME280;13479;49.044;8.716;2022-09-12T12:55:46;98824.38;;;26.26;34.41
25610;BME280;13479;49.044;8.716;2022-09-12T12:58:27;98822.56;;;26.31;33.84
25610;BME280;13479;49.044;8.716;2022-09-12T13:03:32;98824.66;;;26.41;34.13
25610;BME280;13479;49.044;8.716;2022-09-12T13:06:03;98823.84;;;26.41;34.55
25610;BME280;13479;49.044;8.716;2022-09-12T13:08:34;98814.88;;;26.40;34.57
25610;BME280;13479;49.044;8.716;2022-09-12T13:11:07;98822.63;;;26.48;33.97
25610;BME280;13479;49.044;8.716;2022-09-12T13:13:56;98819.53;;;26.57;33.08
25610;BME280;13479;49.044;8.716;2022-09-12T13:19:03;98828.56;;;26.86;32.24
25610;BME280;13479;49.044;8.716;2022-09-12T13:21:29;98834.34;;;26.90;32.06
25610;BME280;13479;49.044;8.716;2022-09-12T13:23:59;98834.25;;;26.85;32.70
25610;BME280;13479;49.044;8.716;2022-09-12T13:26:27;98841.91;;;26.88;31.77
25610;BME280;13479;49.044;8.716;2022-09-12T13:29:09;98841.69;;;26.77;31.86
25610;BME280;13479;49.044;8.716;2022-09-12T13:31:36;98838.69;;;26.62;31.66
25610;BME280;13479;49.044;8.716;2022-09-12T13:34:04;98835.06;;;26.56;31.25
25610;BME280;13479;49.044;8.716;2022-09-12T13:39:27;98824.31;;;26.49;31.35
25610;BME280;13479;49.044;8.716;2022-09-12T13:42:20;98830.69;;;26.43;31.37
25610;BME280;13479;49.044;8.716;2022-09-12T13:44:50;98826.16;;;26.61;31.21
25610;BME280;13479;49.044;8.716;2022-09-12T13:47:27;98814.88;;;26.98;32.26
25610;BME280;13479;49.044;8.716;2022-09-12T13:49:54;98813.94;;;26.92;31.41
25610;BME280;13479;49.044;8.716;2022-09-12T13:52:24;98819.03;;;27.18;30.19
25610;BME280;13479;49.044;8.716;2022-09-12T13:54:55;98828.75;;;27.13;30.65
25610;BME280;13479;49.044;8.716;2022-09-12T13:57:35;98815.19;;;26.85;31.08
25610;BME280;13479;49.044;8.716;2022-09-12T14:00:14;98809.41;;;26.98;31.27
25610;BME280;13479;49.044;8.716;2022-09-12T14:02:44;98820.13;;;26.88;31.12
25610;BME280;13479;49.044;8.716;2022-09-12T14:05:22;98815.78;;;26.75;31.63
25610;BME280;13479;49.044;8.716;2022-09-12T14:07:55;98805.63;;;26.70;31.55
25610;BME280;13479;49.044;8.716;2022-09-12T14:10:35;98802.81;;;26.94;31.03
25610;BME280;13479;49.044;8.716;2022-09-12T14:13:03;98799.34;;;26.81;30.92
25610;BME280;13479;49.044;8.716;2022-09-12T14:15:31;98804.66;;;26.76;30.32
25610;BME280;13479;49.044;8.716;2022-09-12T14:18:00;98809.69;;;26.67;30.89
25610;BME280;13479;49.044;8.716;2022-09-12T14:20:29;98801.06;;;26.59;31.41
25610;BME280;13479;49.044;8.716;2022-09-12T14:22:58;98802.38;;;26.85;30.31
25610;BME280;13479;49.044;8.716;2022-09-12T14:25:24;98806.19;;;26.84;30.21
25610;BME280;13479;49.044;8.716;2022-09-12T14:27:55;98804.44;;;26.78;30.73
25610;BME280;13479;49.044;8.716;2022-09-12T14:30:29;98791.25;;;26.87;32.08
25610;BME280;13479;49.044;8.716;2022-09-12T14:35:42;98787.41;;;27.17;29.90
25610;BME280;13479;49.044;8.716;2022-09-12T14:40:41;98792.25;;;26.97;30.47
25610;BME280;13479;49.044;8.716;2022-09-12T14:43:17;98784.66;;;26.82;31.29
25610;BME280;13479;49.044;8.716;2022-09-12T14:45:54;98787.63;;;26.98;30.36
25610;BME280;13479;49.044;8.716;2022-09-12T14:48:20;98789.09;;;26.89;30.27
25610;BME280;13479;49.044;8.716;2022-09-12T14:50:50;98774.00;;;26.98;31.54
25610;BME280;13479;49.044;8.716;2022-09-12T14:55:44;98768.72;;;27.08;29.93
25610;BME280;13479;49.044;8.716;2022-09-12T15:00:51;98776.06;;;26.91;29.79
25610;BME280;13479;49.044;8.716;2022-09-12T15:03:23;98775.66;;;26.99;29.02
25610;BME280;13479;49.044;8.716;2022-09-12T15:05:49;98771.81;;;26.95;29.74
25610;BME280;13479;49.044;8.716;2022-09-12T15:08:15;98770.16;;;26.94;30.13
25610;BME280;13479;49.044;8.716;2022-09-12T15:10:40;98754.38;;;26.96;30.37
25610;BME280;13479;49.044;8.716;2022-09-12T15:15:35;98743.56;;;27.01;30.57
25610;BME280;13479;49.044;8.716;2022-09-12T15:18:01;98742.59;;;27.07;30.55
25610;BME280;13479;49.044;8.716;2022-09-12T15:20:27;98723.91;;;26.99;32.00
25610;BME280;13479;49.044;8.716;2022-09-12T15:22:52;98726.06;;;26.97;32.44
25610;BME280;13479;49.044;8.716;2022-09-12T15:25:18;98731.00;;;27.17;30.10
25610;BME280;13479;49.044;8.716;2022-09-12T15:27:47;98731.44;;;27.26;29.04
25610;BME280;13479;49.044;8.716;2022-09-12T15:30:14;98738.97;;;27.19;29.22
25610;BME280;13479;49.044;8.716;2022-09-12T15:32:41;98744.63;;;27.17;29.07
25610;BME280;13479;49.044;8.716;2022-09-12T15:35:15;98746.88;;;27.03;29.12
25610;BME280;13479;49.044;8.716;2022-09-12T15:37:42;98733.66;;;26.95;29.81
25610;BME280;13479;49.044;8.716;2022-09-12T15:40:08;98731.84;;;27.01;30.00
25610;BME280;13479;49.044;8.716;2022-09-12T15:42:34;98737.03;;;27.02;29.99
25610;BME280;13479;49.044;8.716;2022-09-12T15:44:59;98735.31;;;26.96;29.90
25610;BME280;13479;49.044;8.716;2022-09-12T15:47:24;98727.81;;;27.03;30.05
25610;BME280;13479;49.044;8.716;2022-09-12T15:49:50;98724.44;;;26.96;29.99
25610;BME280;13479;49.044;8.716;2022-09-12T15:52:15;98714.34;;;26.96;30.58
25610;BME280;13479;49.044;8.716;2022-09-12T15:54:42;98705.75;;;26.88;30.38
25610;BME280;13479;49.044;8.716;2022-09-12T15:57:07;98708.00;;;26.91;30.75
25610;BME280;13479;49.044;8.716;2022-09-12T15:59:33;98709.06;;;26.90;29.53
25610;BME280;13479;49.044;8.716;2022-09-12T16:01:59;98710.13;;;26.89;30.42
25610;BME280;13479;49.044;8.716;2022-09-12T16:04:27;98712.69;;;26.78;30.36
25610;BME280;13479;49.044;8.716;2022-09-12T16:06:54;98709.03;;;26.73;30.46
25610;BME280;13479;49.044;8.716;2022-09-12T16:09:20;98706.78;;;26.70;30.23
25610;BME280;13479;49.044;8.716;2022-09-12T16:11:46;98699.94;;;26.67;30.72
25610;BME280;13479;49.044;8.716;2022-09-12T16:14:13;98688.72;;;26.63;30.71
25610;BME280;13479;49.044;8.716;2022-09-12T16:16:40;98684.09;;;26.64;30.50
25610;BME280;13479;49.044;8.716;2022-09-12T16:19:05;98692.84;;;26.66;30.47
25610;BME280;13479;49.044;8.716;2022-09-12T16:21:31;98683.44;;;26.57;30.85
25610;BME280;13479;49.044;8.716;2022-09-12T16:23:56;98685.56;;;26.55;30.79
25610;BME280;13479;49.044;8.716;2022-09-12T16:26:22;98693.72;;;26.55;30.38
25610;BME280;13479;49.044;8.716;2022-09-12T16:28:56;98677.78;;;26.29;31.49
25610;BME280;13479;49.044;8.716;2022-09-12T16:31:21;98675.66;;;26.31;31.25
25610;BME280;13479;49.044;8.716;2022-09-12T16:33:47;98673.69;;;26.44;30.68
25610;BME280;13479;49.044;8.716;2022-09-12T16:36:14;98667.22;;;26.33;31.65
25610;BME280;13479;49.044;8.716;2022-09-12T16:38:41;98655.56;;;26.20;31.96
25610;BME280;13479;49.044;8.716;2022-09-12T16:41:07;98659.81;;;26.28;31.46
25610;BME280;13479;49.044;8.716;2022-09-12T16:43:33;98653.69;;;26.21;32.10
25610;BME280;13479;49.044;8.716;2022-09-12T16:46:14;98660.94;;;26.15;31.78
25610;BME280;13479;49.044;8.716;2022-09-12T16:48:43;98647.13;;;26.05;32.40
25610;BME280;13479;49.044;8.716;2022-09-12T16:51:10;98651.97;;;26.03;32.22
25610;BME280;13479;49.044;8.716;2022-09-12T16:53:36;98655.63;;;25.97;32.21
25610;BME280;13479;49.044;8.716;2022-09-12T16:56:06;98652.84;;;25.92;32.46
25610;BME280;13479;49.044;8.716;2022-09-12T16:58:33;98653.06;;;25.90;32.54
25610;BME280;13479;49.044;8.716;2022-09-12T17:01:04;98647.47;;;25.68;32.76
25610;BME280;13479;49.044;8.716;2022-09-12T17:03:30;98648.06;;;25.70;32.63
25610;BME280;13479;49.044;8.716;2022-09-12T17:06:02;98651.25;;;25.67;32.45
25610;BME280;13479;49.044;8.716;2022-09-12T17:08:28;98648.91;;;25.58;32.67
25610;BME280;13479;49.044;8.716;2022-09-12T17:11:05;98639.94;;;25.34;33.54
25610;BME280;13479;49.044;8.716;2022-09-12T17:13:31;98656.50;;;25.09;35.52
25610;BME280;13479;49.044;8.716;2022-09-12T17:15:56;98663.69;;;24.91;36.81
25610;BME280;13479;49.044;8.716;2022-09-12T17:18:22;98666.88;;;24.76;38.22
25610;BME280;13479;49.044;8.716;2022-09-12T17:20:48;98666.69;;;24.59;39.11
25610;BME280;13479;49.044;8.716;2022-09-12T17:23:14;98662.28;;;24.46;40.08
25610;BME280;13479;49.044;8.716;2022-09-12T17:25:40;98659.56;;;24.34;40.67
25610;BME280;13479;49.044;8.716;2022-09-12T17:28:09;98652.41;;;24.21;40.95
25610;BME280;13479;49.044;8.716;2022-09-12T17:30:35;98657.91;;;24.03;41.65
25610;BME280;13479;49.044;8.716;2022-09-12T17:33:00;98656.78;;;23.92;41.96
25610;BME280;13479;49.044;8.716;2022-09-12T17:35:26;98652.03;;;23.69;42.90
25610;BME280;13479;49.044;8.716;2022-09-12T17:37:52;98649.72;;;23.54;42.84
25610;BME280;13479;49.044;8.716;2022-09-12T17:40:17;98650.63;;;23.29;43.65
25610;BME280;13479;49.044;8.716;2022-09-12T17:42:42;98658.25;;;23.13;44.19
25610;BME280;13479;49.044;8.716;2022-09-12T17:45:08;98659.09;;;22.89;45.04
25610;BME280;13479;49.044;8.716;2022-09-12T17:47:34;98662.16;;;22.74;45.24
25610;BME280;13479;49.044;8.716;2022-09-12T17:49:59;98661.41;;;22.60;45.61
25610;BME280;13479;49.044;8.716;2022-09-12T17:52:24;98649.81;;;22.52;44.50
25610;BME280;13479;49.044;8.716;2022-09-12T17:54:50;98643.22;;;22.35;44.37
25610;BME280;13479;49.044;8.716;2022-09-12T17:57:15;98635.22;;;22.21;44.50
25610;BME280;13479;49.044;8.716;2022-09-12T17:59:40;98642.75;;;22.13;44.83
25610;BME280;13479;49.044;8.716;2022-09-12T18:02:10;98645.19;;;21.82;46.02
25610;BME280;13479;49.044;8.716;2022-09-12T18:04:40;98670.56;;;21.81;47.17
25610;BME280;13479;49.044;8.716;2022-09-12T18:07:09;98654.38;;;21.68;47.12
25610;BME280;13479;49.044;8.716;2022-09-12T18:09:35;98644.81;;;21.72;45.67
25610;BME280;13479;49.044;8.716;2022-09-12T18:12:00;98632.81;;;21.54;45.71
25610;BME280;13479;49.044;8.716;2022-09-12T18:14:26;98629.94;;;21.49;45.66
25610;BME280;13479;49.044;8.716;2022-09-12T18:16:52;98630.34;;;21.39;45.61
25610;BME280;13479;49.044;8.716;2022-09-12T18:19:17;98622.31;;;21.26;45.52
25610;BME280;13479;49.044;8.716;2022-09-12T18:21:43;98633.38;;;21.11;46.24
25610;BME280;13479;49.044;8.716;2022-09-12T18:24:08;98617.38;;;20.96;46.79
25610;BME280;13479;49.044;8.716;2022-09-12T18:26:34;98624.25;;;20.85;46.89
25610;BME280;13479;49.044;8.716;2022-09-12T18:28:59;98627.34;;;20.68;47.37
25610;BME280;13479;49.044;8.716;2022-09-12T18:31:27;98625.06;;;20.52;48.13
25610;BME280;13479;49.044;8.716;2022-09-12T18:33:53;98620.06;;;20.35;48.62
25610;BME280;13479;49.044;8.716;2022-09-12T18:36:19;98624.84;;;20.20;49.53
25610;BME280;13479;49.044;8.716;2022-09-12T18:38:46;98649.47;;;20.17;50.17
25610;BME280;13479;49.044;8.716;2022-09-12T18:41:14;98639.72;;;20.09;49.61
25610;BME280;13479;49.044;8.716;2022-09-12T18:43:39;98634.09;;;19.90;50.21
25610;BME280;13479;49.044;8.716;2022-09-12T18:46:13;98633.56;;;19.73;50.83
25610;BME280;13479;49.044;8.716;2022-09-12T18:48:39;98637.03;;;19.60;51.32